sensor_id;sensor_type;location;lat;lon;timestamp;pressure;altitude;pressure_sealevel;temperature;humidity
79453;BME280;68899;52.116;5.404;2024-03-08T00:02:18;101982.44;;;3.55;78.53
79453;BME280;68899;52.116;5.404;2024-03-08T00:04:45;101977.31;;;3.51;78.84
79453;BME280;68899;52.116;5.404;2024-03-08T00:07:12;101983.38;;;3.51;78.53
79453;BME280;68899;52.116;5.404;2024-03-08T00:09:40;101977.31;;;3.51;78.84
79453;BME280;68899;52.116;5.404;2024-03-08T00:12:06;101980.81;;;3.50;78.25
79453;BME280;68899;52.116;5.404;2024-03-08T00:14:33;101978.22;;;3.48;78.41
79453;BME280;68899;52.116;5.404;2024-03-08T00:17:00;101979.97;;;3.48;78.72
79453;BME280;68899;52.116;5.404;2024-03-08T00:19:26;101974.84;;;3.42;78.21
79453;BME280;68899;52.116;5.404;2024-03-08T00:21:53;101975.72;;;3.40;78.41
79453;BME280;68899;52.116;5.404;2024-03-08T00:24:21;101971.41;;;3.38;78.60
79453;BME280;68899;52.116;5.404;2024-03-08T00:26:51;101972.28;;;3.37;78.39
79453;BME280;68899;52.116;5.404;2024-03-08T00:29:20;101972.34;;;3.34;78.33
79453;BME280;68899;52.116;5.404;2024-03-08T00:31:46;101972.31;;;3.35;77.93
79453;BME280;68899;52.116;5.404;2024-03-08T00:34:14;101967.16;;;3.32;78.40
79453;BME280;68899;52.116;5.404;2024-03-08T00:36:41;101957.69;;;3.27;78.16
79453;BME280;68899;52.116;5.404;2024-03-08T00:39:07;101971.56;;;3.27;78.28
79453;BME280;68899;52.116;5.404;2024-03-08T00:41:34;101959.44;;;3.26;78.78
79453;BME280;68899;52.116;5.404;2024-03-08T00:44:00;101961.19;;;3.26;78.51
79453;BME280;68899;52.116;5.404;2024-03-08T00:46:27;101959.47;;;3.25;78.22
79453;BME280;68899;52.116;5.404;2024-03-08T00:48:55;101954.28;;;3.23;78.07
79453;BME280;68899;52.116;5.404;2024-03-08T00:51:23;101948.31;;;3.17;78.04
79453;BME280;68899;52.116;5.404;2024-03-08T00:53:49;101947.50;;;3.13;78.63
79453;BME280;68899;52.116;5.404;2024-03-08T00:56:16;101947.50;;;3.11;78.03
79453;BME280;68899;52.116;5.404;2024-03-08T00:58:42;101938.94;;;3.02;78.03
79453;BME280;68899;52.116;5.404;2024-03-08T01:01:09;101937.25;;;3.01;78.24
79453;BME280;68899;52.116;5.404;2024-03-08T01:03:36;101936.44;;;2.97;78.44
79453;BME280;68899;52.116;5.404;2024-03-08T01:06:02;101928.63;;;2.97;78.20
79453;BME280;68899;52.116;5.404;2024-03-08T01:08:29;101929.50;;;2.96;78.89
79453;BME280;68899;52.116;5.404;2024-03-08T01:10:56;101918.22;;;2.97;78.37
79453;BME280;68899;52.116;5.404;2024-03-08T01:13:23;101920.84;;;2.96;78.32
79453;BME280;68899;52.116;5.404;2024-03-08T01:15:49;101914.88;;;2.89;78.54
79453;BME280;68899;52.116;5.404;2024-03-08T01:18:16;101905.34;;;2.90;78.66
79453;BME280;68899;52.116;5.404;2024-03-08T01:20:43;101907.06;;;2.89;78.19
79453;BME280;68899;52.116;5.404;2024-03-08T01:23:10;101901.91;;;2.88;78.06
79453;BME280;68899;52.116;5.404;2024-03-08T01:25:36;101900.16;;;2.87;78.31
79453;BME280;68899;52.116;5.404;2024-03-08T01:28:03;101901.91;;;2.84;78.36
79453;BME280;68899;52.116;5.404;2024-03-08T01:30:30;101905.38;;;2.85;78.04
79453;BME280;68899;52.116;5.404;2024-03-08T01:32:59;101896.69;;;2.86;78.11
79453;BME280;68899;52.116;5.404;2024-03-08T01:35:25;101896.72;;;2.84;78.55
79453;BME280;68899;52.116;5.404;2024-03-08T01:37:53;101886.38;;;2.81;77.96
79453;BME280;68899;52.116;5.404;2024-03-08T01:40:20;101886.41;;;2.77;77.94
79453;BME280;68899;52.116;5.404;2024-03-08T01:42:47;101885.63;;;2.72;78.65
79453;BME280;68899;52.116;5.404;2024-03-08T01:45:14;101884.78;;;2.68;78.40
79453;BME280;68899;52.116;5.404;2024-03-08T01:47:41;101879.63;;;2.67;78.19
79453;BME280;68899;52.116;5.404;2024-03-08T01:50:08;101874.47;;;2.64;77.89
79453;BME280;68899;52.116;5.404;2024-03-08T01:52:36;101871.06;;;2.59;77.95
79453;BME280;68899;52.116;5.404;2024-03-08T01:55:04;101871.94;;;2.58;78.11
79453;BME280;68899;52.116;5.404;2024-03-08T01:57:33;101870.19;;;2.58;78.03
79453;BME280;68899;52.116;5.404;2024-03-08T02:00:01;101864.19;;;2.54;78.51
79453;BME280;68899;52.116;5.404;2024-03-08T02:02:32;101864.19;;;2.54;78.16
79453;BME280;68899;52.116;5.404;2024-03-08T02:05:00;101865.06;;;2.55;78.26
79453;BME280;68899;52.116;5.404;2024-03-08T02:07:27;101866.81;;;2.53;77.96
79453;BME280;68899;52.116;5.404;2024-03-08T02:09:53;101863.34;;;2.54;78.18
79453;BME280;68899;52.116;5.404;2024-03-08T02:12:20;101861.63;;;2.51;78.09
79453;BME280;68899;52.116;5.404;2024-03-08T02:14:47;101859.03;;;2.50;78.25
79453;BME280;68899;52.116;5.404;2024-03-08T02:17:14;101857.34;;;2.47;78.34
79453;BME280;68899;52.116;5.404;2024-03-08T02:19:40;101854.75;;;2.47;77.46
79453;BME280;68899;52.116;5.404;2024-03-08T02:22:07;101858.22;;;2.48;78.03
79453;BME280;68899;52.116;5.404;2024-03-08T02:24:33;101850.44;;;2.46;77.49
79453;BME280;68899;52.116;5.404;2024-03-08T02:27:01;101842.69;;;2.42;77.88
79453;BME280;68899;52.116;5.404;2024-03-08T02:29:28;101834.97;;;2.37;77.42
79453;BME280;68899;52.116;5.404;2024-03-08T02:31:55;101835.88;;;2.35;77.40
79453;BME280;68899;52.116;5.404;2024-03-08T02:34:23;101831.53;;;2.34;77.63
79453;BME280;68899;52.116;5.404;2024-03-08T02:36:50;101828.06;;;2.33;77.57
79453;BME280;68899;52.116;5.404;2024-03-08T02:39:16;101829.84;;;2.31;78.28
79453;BME280;68899;52.116;5.404;2024-03-08T02:41:45;101827.28;;;2.30;78.32
79453;BME280;68899;52.116;5.404;2024-03-08T02:44:12;101815.16;;;2.30;78.23
79453;BME280;68899;52.116;5.404;2024-03-08T02:46:39;101817.75;;;2.30;77.40
79453;BME280;68899;52.116;5.404;2024-03-08T02:49:05;101816.06;;;2.28;77.58
79453;BME280;68899;52.116;5.404;2024-03-08T02:51:34;101806.53;;;2.25;77.83
79453;BME280;68899;52.116;5.404;2024-03-08T02:54:01;101805.75;;;2.20;77.60
79453;BME280;68899;52.116;5.404;2024-03-08T02:56:28;101803.16;;;2.17;77.99
79453;BME280;68899;52.116;5.404;2024-03-08T02:58:54;101807.50;;;2.19;78.07
79453;BME280;68899;52.116;5.404;2024-03-08T03:01:21;101799.69;;;2.19;78.03
79453;BME280;68899;52.116;5.404;2024-03-08T03:03:48;101806.59;;;2.20;77.67
79453;BME280;68899;52.116;5.404;2024-03-08T03:06:15;101802.28;;;2.21;77.40
79453;BME280;68899;52.116;5.404;2024-03-08T03:08:42;101796.28;;;2.14;77.55
79453;BME280;68899;52.116;5.404;2024-03-08T03:11:10;101792.03;;;2.09;77.53
79453;BME280;68899;52.116;5.404;2024-03-08T03:13:37;101795.50;;;2.09;78.06
79453;BME280;68899;52.116;5.404;2024-03-08T03:16:03;101785.09;;;2.08;77.35
79453;BME280;68899;52.116;5.404;2024-03-08T03:18:30;101785.16;;;2.05;77.82
79453;BME280;68899;52.116;5.404;2024-03-08T03:20:59;101785.19;;;2.03;77.35
79453;BME280;68899;52.116;5.404;2024-03-08T03:23:26;101787.81;;;2.00;77.46
79453;BME280;68899;52.116;5.404;2024-03-08T03:25:53;101779.13;;;1.99;77.45
79453;BME280;68899;52.116;5.404;2024-03-08T03:28:22;101771.34;;;1.99;77.75
79453;BME280;68899;52.116;5.404;2024-03-08T03:30:50;101767.06;;;2.00;77.74
79453;BME280;68899;52.116;5.404;2024-03-08T03:33:17;101773.13;;;1.96;78.11
79453;BME280;68899;52.116;5.404;2024-03-08T03:35:44;101768.81;;;1.95;78.24
79453;BME280;68899;52.116;5.404;2024-03-08T03:38:12;101773.13;;;1.96;77.93
79453;BME280;68899;52.116;5.404;2024-03-08T03:40:41;101768.81;;;1.95;77.57
79453;BME280;68899;52.116;5.404;2024-03-08T03:43:08;101767.09;;;1.95;78.08
79453;BME280;68899;52.116;5.404;2024-03-08T03:45:36;101760.19;;;1.94;77.36
79453;BME280;68899;52.116;5.404;2024-03-08T03:48:05;101768.84;;;1.93;77.71
79453;BME280;68899;52.116;5.404;2024-03-08T03:50:41;101762.81;;;1.93;77.29
79453;BME280;68899;52.116;5.404;2024-03-08T03:53:08;101760.19;;;1.94;78.03
79453;BME280;68899;52.116;5.404;2024-03-08T03:55:36;101765.41;;;1.91;77.59
79453;BME280;68899;52.116;5.404;2024-03-08T03:58:06;101761.13;;;1.87;77.25
79453;BME280;68899;52.116;5.404;2024-03-08T04:00:33;101759.44;;;1.85;77.82
79453;BME280;68899;52.116;5.404;2024-03-08T04:02:59;101756.78;;;1.88;77.23
79453;BME280;68899;52.116;5.404;2024-03-08T04:05:29;101755.09;;;1.85;77.81
79453;BME280;68899;52.116;5.404;2024-03-08T04:07:56;101759.44;;;1.83;77.64
79453;BME280;68899;52.116;5.404;2024-03-08T04:10:23;101757.72;;;1.82;77.51
79453;BME280;68899;52.116;5.404;2024-03-08T04:12:50;101750.81;;;1.80;77.08
79453;BME280;68899;52.116;5.404;2024-03-08T04:15:17;101747.34;;;1.81;77.24
79453;BME280;68899;52.116;5.404;2024-03-08T04:17:43;101742.19;;;1.79;77.39
79453;BME280;68899;52.116;5.404;2024-03-08T04:20:13;101743.06;;;1.78;76.94
79453;BME280;68899;52.116;5.404;2024-03-08T04:22:40;101743.94;;;1.77;77.44
79453;BME280;68899;52.116;5.404;2024-03-08T04:25:07;101743.09;;;1.77;77.02
79453;BME280;68899;52.116;5.404;2024-03-08T04:27:33;101736.22;;;1.74;77.45
79453;BME280;68899;52.116;5.404;2024-03-08T04:30:01;101737.94;;;1.72;77.21
79453;BME280;68899;52.116;5.404;2024-03-08T04:32:28;101743.13;;;1.72;77.08
79453;BME280;68899;52.116;5.404;2024-03-08T04:34:56;101737.09;;;1.70;77.55
79453;BME280;68899;52.116;5.404;2024-03-08T04:37:23;101733.69;;;1.66;77.31
79453;BME280;68899;52.116;5.404;2024-03-08T04:39:50;101736.25;;;1.68;77.06
79453;BME280;68899;52.116;5.404;2024-03-08T04:42:17;101732.81;;;1.67;77.12
79453;BME280;68899;52.116;5.404;2024-03-08T04:44:45;101732.78;;;1.69;77.25
79453;BME280;68899;52.116;5.404;2024-03-08T04:47:12;101727.66;;;1.63;76.93
79453;BME280;68899;52.116;5.404;2024-03-08T04:49:38;101733.69;;;1.63;76.92
79453;BME280;68899;52.116;5.404;2024-03-08T04:52:05;101730.28;;;1.61;77.72
79453;BME280;68899;52.116;5.404;2024-03-08T04:54:33;101725.09;;;1.60;77.45
79453;BME280;68899;52.116;5.404;2024-03-08T04:57:01;101719.09;;;1.58;77.38
79453;BME280;68899;52.116;5.404;2024-03-08T04:59:30;101719.09;;;1.58;77.00
79453;BME280;68899;52.116;5.404;2024-03-08T05:01:57;101726.88;;;1.55;77.24
79453;BME280;68899;52.116;5.404;2024-03-08T05:04:23;101717.34;;;1.55;77.58
79453;BME280;68899;52.116;5.404;2024-03-08T05:06:50;101717.38;;;1.54;77.42
79453;BME280;68899;52.116;5.404;2024-03-08T05:09:17;101715.66;;;1.54;77.54
79453;BME280;68899;52.116;5.404;2024-03-08T05:11:46;101719.09;;;1.55;76.70
79453;BME280;68899;52.116;5.404;2024-03-08T05:14:14;101723.41;;;1.56;77.32
79453;BME280;68899;52.116;5.404;2024-03-08T05:16:44;101721.72;;;1.52;77.46
79453;BME280;68899;52.116;5.404;2024-03-08T05:19:19;101717.44;;;1.51;77.72
79453;BME280;68899;52.116;5.404;2024-03-08T05:21:47;101717.47;;;1.46;77.11
79453;BME280;68899;52.116;5.404;2024-03-08T05:24:14;101712.28;;;1.46;77.57
79453;BME280;68899;52.116;5.404;2024-03-08T05:26:42;101704.50;;;1.45;77.37
79453;BME280;68899;52.116;5.404;2024-03-08T05:29:10;101705.41;;;1.42;77.12
79453;BME280;68899;52.116;5.404;2024-03-08T05:31:50;101704.56;;;1.40;77.59
79453;BME280;68899;52.116;5.404;2024-03-08T05:34:17;101705.41;;;1.39;76.82
79453;BME280;68899;52.116;5.404;2024-03-08T05:36:46;101704.56;;;1.40;77.51
79453;BME280;68899;52.116;5.404;2024-03-08T05:39:13;101703.69;;;1.41;77.06
79453;BME280;68899;52.116;5.404;2024-03-08T05:41:41;101701.97;;;1.40;76.72
79453;BME280;68899;52.116;5.404;2024-03-08T05:44:09;101700.25;;;1.39;77.24
79453;BME280;68899;52.116;5.404;2024-03-08T05:46:37;101700.28;;;1.36;76.82
79453;BME280;68899;52.116;5.404;2024-03-08T05:49:04;101695.94;;;1.36;77.42
79453;BME280;68899;52.116;5.404;2024-03-08T05:51:33;101693.38;;;1.35;77.21
79453;BME280;68899;52.116;5.404;2024-03-08T05:54:05;101692.53;;;1.33;76.66
79453;BME280;68899;52.116;5.404;2024-03-08T05:56:33;101687.38;;;1.31;77.26
79453;BME280;68899;52.116;5.404;2024-03-08T05:59:00;101694.28;;;1.29;76.60
79453;BME280;68899;52.116;5.404;2024-03-08T06:01:27;101681.34;;;1.28;77.03
79453;BME280;68899;52.116;5.404;2024-03-08T06:03:55;101677.91;;;1.27;77.33
79453;BME280;68899;52.116;5.404;2024-03-08T06:06:24;101678.75;;;1.31;77.57
79453;BME280;68899;52.116;5.404;2024-03-08T06:08:52;101683.06;;;1.30;77.03
79453;BME280;68899;52.116;5.404;2024-03-08T06:11:19;101674.44;;;1.28;77.89
79453;BME280;68899;52.116;5.404;2024-03-08T06:13:47;101677.00;;;1.30;76.99
79453;BME280;68899;52.116;5.404;2024-03-08T06:16:15;101676.16;;;1.29;77.34
79453;BME280;68899;52.116;5.404;2024-03-08T06:18:42;101680.47;;;1.30;77.18
79453;BME280;68899;52.116;5.404;2024-03-08T06:21:09;101676.16;;;1.28;76.94
79453;BME280;68899;52.116;5.404;2024-03-08T06:23:38;101676.16;;;1.29;76.82
79453;BME280;68899;52.116;5.404;2024-03-08T06:26:05;101679.63;;;1.28;76.78
79453;BME280;68899;52.116;5.404;2024-03-08T06:28:32;101677.88;;;1.30;77.04
79453;BME280;68899;52.116;5.404;2024-03-08T06:30:59;101683.94;;;1.31;76.67
79453;BME280;68899;52.116;5.404;2024-03-08T06:33:26;101680.47;;;1.30;77.46
79453;BME280;68899;52.116;5.404;2024-03-08T06:35:56;101677.00;;;1.31;76.79
79453;BME280;68899;52.116;5.404;2024-03-08T06:38:24;101669.19;;;1.34;76.78
79453;BME280;68899;52.116;5.404;2024-03-08T06:40:51;101677.81;;;1.35;77.00
79453;BME280;68899;52.116;5.404;2024-03-08T06:43:18;101671.75;;;1.37;76.96
79453;BME280;68899;52.116;5.404;2024-03-08T06:45:46;101667.41;;;1.38;77.05
79453;BME280;68899;52.116;5.404;2024-03-08T06:48:18;101666.56;;;1.37;76.38
79453;BME280;68899;52.116;5.404;2024-03-08T06:50:46;101663.09;;;1.40;76.90
79453;BME280;68899;52.116;5.404;2024-03-08T06:53:14;101660.50;;;1.40;76.52
79453;BME280;68899;52.116;5.404;2024-03-08T06:55:42;101659.63;;;1.38;76.76
79453;BME280;68899;52.116;5.404;2024-03-08T06:58:08;101656.16;;;1.39;77.06
79453;BME280;68899;52.116;5.404;2024-03-08T07:00:38;101663.06;;;1.41;76.60
79453;BME280;68899;52.116;5.404;2024-03-08T07:03:07;101659.59;;;1.44;76.90
79453;BME280;68899;52.116;5.404;2024-03-08T07:05:34;101656.97;;;1.46;76.63
79453;BME280;68899;52.116;5.404;2024-03-08T07:08:01;101659.53;;;1.49;77.18
79453;BME280;68899;52.116;5.404;2024-03-08T07:10:28;101666.41;;;1.51;76.60
79453;BME280;68899;52.116;5.404;2024-03-08T07:12:55;101659.47;;;1.53;76.58
79453;BME280;68899;52.116;5.404;2024-03-08T07:15:22;101658.59;;;1.57;76.33
79453;BME280;68899;52.116;5.404;2024-03-08T07:17:49;101659.44;;;1.58;76.36
79453;BME280;68899;52.116;5.404;2024-03-08T07:20:19;101649.00;;;1.62;76.33
79453;BME280;68899;52.116;5.404;2024-03-08T07:22:46;101651.56;;;1.65;76.58
79453;BME280;68899;52.116;5.404;2024-03-08T07:25:19;101648.06;;;1.68;76.58
79453;BME280;68899;52.116;5.404;2024-03-08T07:27:48;101647.16;;;1.70;76.39
79453;BME280;68899;52.116;5.404;2024-03-08T07:30:15;101641.94;;;1.74;76.38
79453;BME280;68899;52.116;5.404;2024-03-08T07:33:01;101648.00;;;1.76;76.83
79453;BME280;68899;52.116;5.404;2024-03-08T07:35:31;101640.16;;;1.79;76.13
79453;BME280;68899;52.116;5.404;2024-03-08T07:37:57;101632.31;;;1.82;75.93
79453;BME280;68899;52.116;5.404;2024-03-08T07:40:26;101634.91;;;1.85;75.86
79453;BME280;68899;52.116;5.404;2024-03-08T07:42:53;101633.09;;;1.88;76.42
79453;BME280;68899;52.116;5.404;2024-03-08T07:45:19;101628.75;;;1.90;76.04
79453;BME280;68899;52.116;5.404;2024-03-08T07:47:46;101627.03;;;1.92;76.34
79453;BME280;68899;52.116;5.404;2024-03-08T07:50:13;101628.72;;;1.95;76.01
79453;BME280;68899;52.116;5.404;2024-03-08T07:52:42;101626.91;;;1.98;75.84
79453;BME280;68899;52.116;5.404;2024-03-08T07:55:10;101621.66;;;2.05;75.79
79453;BME280;68899;52.116;5.404;2024-03-08T07:57:39;101626.75;;;2.11;75.57
79453;BME280;68899;52.116;5.404;2024-03-08T08:00:06;101616.31;;;2.15;75.23
79453;BME280;68899;52.116;5.404;2024-03-08T08:02:35;101614.56;;;2.17;75.43
79453;BME280;68899;52.116;5.404;2024-03-08T08:05:06;101599.75;;;2.22;75.29
79453;BME280;68899;52.116;5.404;2024-03-08T08:07:32;101610.06;;;2.29;75.17
79453;BME280;68899;52.116;5.404;2024-03-08T08:09:59;101600.47;;;2.32;75.32
79453;BME280;68899;52.116;5.404;2024-03-08T08:12:25;101604.72;;;2.38;74.75
79453;BME280;68899;52.116;5.404;2024-03-08T08:14:54;101602.06;;;2.41;74.99
79453;BME280;68899;52.116;5.404;2024-03-08T08:17:21;101596.75;;;2.48;74.83
79453;BME280;68899;52.116;5.404;2024-03-08T08:19:48;101602.69;;;2.57;74.66
79453;BME280;68899;52.116;5.404;2024-03-08T08:22:15;101592.25;;;2.61;74.56
79453;BME280;68899;52.116;5.404;2024-03-08T08:24:42;101590.34;;;2.69;74.52
79453;BME280;68899;52.116;5.404;2024-03-08T08:27:09;101590.25;;;2.75;74.22
79453;BME280;68899;52.116;5.404;2024-03-08T08:29:35;101587.56;;;2.81;73.91
79453;BME280;68899;52.116;5.404;2024-03-08T08:32:02;101585.69;;;2.90;73.79
79453;BME280;68899;52.116;5.404;2024-03-08T08:34:29;101580.34;;;2.97;73.96
79453;BME280;68899;52.116;5.404;2024-03-08T08:36:56;101585.41;;;3.03;73.27
79453;BME280;68899;52.116;5.404;2024-03-08T08:39:23;101583.56;;;3.10;73.50
79453;BME280;68899;52.116;5.404;2024-03-08T08:41:52;101570.34;;;3.21;73.70
79453;BME280;68899;52.116;5.404;2024-03-08T08:44:21;101572.06;;;3.23;73.31
79453;BME280;68899;52.116;5.404;2024-03-08T08:46:48;101579.66;;;3.32;72.88
79453;BME280;68899;52.116;5.404;2024-03-08T08:49:15;101576.09;;;3.36;72.65
79453;BME280;68899;52.116;5.404;2024-03-08T08:51:48;101563.03;;;3.41;72.76
79453;BME280;68899;52.116;5.404;2024-03-08T08:54:15;101556.81;;;3.48;72.80
79453;BME280;68899;52.116;5.404;2024-03-08T08:56:43;101560.13;;;3.56;72.27
79453;BME280;68899;52.116;5.404;2024-03-08T08:59:11;101561.81;;;3.57;71.96
79453;BME280;68899;52.116;5.404;2024-03-08T09:01:46;101553.09;;;3.60;72.35
79453;BME280;68899;52.116;5.404;2024-03-08T09:04:16;101551.22;;;3.66;71.90
79453;BME280;68899;52.116;5.404;2024-03-08T09:06:43;101541.50;;;3.73;71.70
79453;BME280;68899;52.116;5.404;2024-03-08T09:09:11;101538.84;;;3.76;71.50
79453;BME280;68899;52.116;5.404;2024-03-08T09:11:41;101538.69;;;3.84;71.35
79453;BME280;68899;52.116;5.404;2024-03-08T09:14:08;101532.47;;;3.89;71.17
79453;BME280;68899;52.116;5.404;2024-03-08T09:16:35;101528.91;;;3.93;70.99
79453;BME280;68899;52.116;5.404;2024-03-08T09:19:06;101527.03;;;3.98;71.18
79453;BME280;68899;52.116;5.404;2024-03-08T09:21:33;101522.47;;;4.10;71.15
79453;BME280;68899;52.116;5.404;2024-03-08T09:24:04;101522.19;;;4.20;71.53
79453;BME280;68899;52.116;5.404;2024-03-08T09:26:31;101515.19;;;4.22;70.87
79453;BME280;68899;52.116;5.404;2024-03-08T09:28:59;101509.06;;;4.25;70.86
79453;BME280;68899;52.116;5.404;2024-03-08T09:31:26;101501.19;;;4.28;71.20
79453;BME280;68899;52.116;5.404;2024-03-08T09:33:52;101503.75;;;4.30;70.11
79453;BME280;68899;52.116;5.404;2024-03-08T09:36:19;101499.34;;;4.32;70.16
79453;BME280;68899;52.116;5.404;2024-03-08T09:38:46;101499.06;;;4.44;70.62
79453;BME280;68899;52.116;5.404;2024-03-08T09:41:13;101492.00;;;4.47;70.18
79453;BME280;68899;52.116;5.404;2024-03-08T09:43:41;101492.66;;;4.56;70.09
79453;BME280;68899;52.116;5.404;2024-03-08T09:46:08;101486.44;;;4.61;69.91
79453;BME280;68899;52.116;5.404;2024-03-08T09:48:35;101478.47;;;4.66;69.83
79453;BME280;68899;52.116;5.404;2024-03-08T09:51:03;101471.22;;;4.77;69.95
79453;BME280;68899;52.116;5.404;2024-03-08T09:53:30;101470.09;;;4.87;70.17
79453;BME280;68899;52.116;5.404;2024-03-08T09:55:56;101468.28;;;4.89;69.07
79453;BME280;68899;52.116;5.404;2024-03-08T09:58:23;101462.06;;;4.93;69.24
79453;BME280;68899;52.116;5.404;2024-03-08T10:01:00;101462.75;;;5.00;69.02
79453;BME280;68899;52.116;5.404;2024-03-08T10:03:31;101458.28;;;5.05;69.21
79453;BME280;68899;52.116;5.404;2024-03-08T10:06:01;101459.63;;;5.18;69.86
79453;BME280;68899;52.116;5.404;2024-03-08T10:08:28;101459.28;;;5.29;69.01
79453;BME280;68899;52.116;5.404;2024-03-08T10:10:58;101447.84;;;5.34;68.17
79453;BME280;68899;52.116;5.404;2024-03-08T10:13:26;101447.72;;;5.37;68.38
79453;BME280;68899;52.116;5.404;2024-03-08T10:15:56;101436.13;;;5.48;68.14
79453;BME280;68899;52.116;5.404;2024-03-08T10:18:22;101431.50;;;5.56;68.91
79453;BME280;68899;52.116;5.404;2024-03-08T10:21:06;101422.50;;;5.66;68.34
79453;BME280;68899;52.116;5.404;2024-03-08T10:23:34;101423.13;;;5.73;67.90
79453;BME280;68899;52.116;5.404;2024-03-08T10:26:16;101412.56;;;5.77;67.72
79453;BME280;68899;52.116;5.404;2024-03-08T10:28:48;101409.75;;;5.83;67.36
79453;BME280;68899;52.116;5.404;2024-03-08T10:31:16;101407.84;;;5.88;67.60
79453;BME280;68899;52.116;5.404;2024-03-08T10:33:46;101407.63;;;5.96;67.10
79453;BME280;68899;52.116;5.404;2024-03-08T10:36:13;101404.03;;;5.99;66.37
79453;BME280;68899;52.116;5.404;2024-03-08T10:38:42;101402.00;;;6.08;66.83
79453;BME280;68899;52.116;5.404;2024-03-08T10:41:09;101400.06;;;6.13;66.52
79453;BME280;68899;52.116;5.404;2024-03-08T10:49:26;101388.50;;;6.20;64.83
79453;BME280;68899;52.116;5.404;2024-03-08T10:51:57;101383.94;;;6.27;65.08
79453;BME280;68899;52.116;5.404;2024-03-08T10:54:26;101376.81;;;6.31;64.37
79453;BME280;68899;52.116;5.404;2024-03-08T10:56:53;101368.72;;;6.38;64.71
79453;BME280;68899;52.116;5.404;2024-03-08T10:59:22;101359.75;;;6.45;64.96
79453;BME280;68899;52.116;5.404;2024-03-08T11:01:50;101354.31;;;6.51;64.80
79453;BME280;68899;52.116;5.404;2024-03-08T11:04:17;101349.63;;;6.60;63.90
79453;BME280;68899;52.116;5.404;2024-03-08T11:06:50;101340.72;;;6.65;64.63
79453;BME280;68899;52.116;5.404;2024-03-08T11:09:35;101328.56;;;6.64;64.14
79453;BME280;68899;52.116;5.404;2024-03-08T11:12:29;101328.28;;;6.72;64.26
79453;BME280;68899;52.116;5.404;2024-03-08T11:14:59;101324.44;;;6.80;64.17
79453;BME280;68899;52.116;5.404;2024-03-08T11:19:58;101323.13;;;6.92;62.71
79453;BME280;68899;52.116;5.404;2024-03-08T11:22:33;101306.50;;;6.93;62.67
79453;BME280;68899;52.116;5.404;2024-03-08T11:25:04;101302.03;;;6.97;63.38
79453;BME280;68899;52.116;5.404;2024-03-08T11:27:37;101289.59;;;7.02;62.41
79453;BME280;68899;52.116;5.404;2024-03-08T11:30:05;101284.31;;;7.03;62.28
79453;BME280;68899;52.116;5.404;2024-03-08T11:32:45;101285.06;;;7.07;62.00
79453;BME280;68899;52.116;5.404;2024-03-08T11:35:19;101281.09;;;7.19;62.19
79453;BME280;68899;52.116;5.404;2024-03-08T11:37:47;101269.53;;;7.24;62.53
79453;BME280;68899;52.116;5.404;2024-03-08T11:40:16;101268.31;;;7.33;61.89
79453;BME280;68899;52.116;5.404;2024-03-08T11:42:47;101262.81;;;7.39;61.79
79453;BME280;68899;52.116;5.404;2024-03-08T11:45:18;101261.59;;;7.48;62.15
79453;BME280;68899;52.116;5.404;2024-03-08T11:47:48;101251.81;;;7.51;60.83
79453;BME280;68899;52.116;5.404;2024-03-08T11:50:17;101248.22;;;7.54;60.27
79453;BME280;68899;52.116;5.404;2024-03-08T11:52:46;101241.72;;;7.62;59.98
79453;BME280;68899;52.116;5.404;2024-03-08T11:55:13;101246.88;;;7.65;60.25
79453;BME280;68899;52.116;5.404;2024-03-08T11:57:40;101237.94;;;7.70;59.58
79453;BME280;68899;52.116;5.404;2024-03-08T12:00:16;101225.63;;;7.72;59.25
79453;BME280;68899;52.116;5.404;2024-03-08T12:03:07;101233.22;;;7.78;59.12
79453;BME280;68899;52.116;5.404;2024-03-08T12:05:36;101229.69;;;7.79;58.46
79453;BME280;68899;52.116;5.404;2024-03-08T12:08:04;101214.75;;;7.81;59.27
79453;BME280;68899;52.116;5.404;2024-03-08T12:10:33;101216.91;;;7.91;59.23
79453;BME280;68899;52.116;5.404;2024-03-08T12:13:02;101204.59;;;7.93;58.24
79453;BME280;68899;52.116;5.404;2024-03-08T12:15:30;101207.97;;;7.96;58.37
79453;BME280;68899;52.116;5.404;2024-03-08T12:18:00;101203.44;;;7.99;58.16
79453;BME280;68899;52.116;5.404;2024-03-08T12:20:28;101207.41;;;8.08;58.67
79453;BME280;68899;52.116;5.404;2024-03-08T12:22:58;101201.97;;;8.12;57.63
79453;BME280;68899;52.116;5.404;2024-03-08T12:25:27;101199.44;;;8.11;57.18
79453;BME280;68899;52.116;5.404;2024-03-08T12:28:07;101201.28;;;8.09;58.39
79453;BME280;68899;52.116;5.404;2024-03-08T12:30:49;101189.66;;;8.14;58.31
79453;BME280;68899;52.116;5.404;2024-03-08T12:33:18;101182.56;;;8.16;57.95
79453;BME280;68899;52.116;5.404;2024-03-08T12:35:52;101174.78;;;8.15;58.18
79453;BME280;68899;52.116;5.404;2024-03-08T12:38:23;101170.34;;;8.17;57.76
79453;BME280;68899;52.116;5.404;2024-03-08T12:40:58;101163.16;;;8.20;57.04
79453;BME280;68899;52.116;5.404;2024-03-08T12:43:25;101167.50;;;8.21;56.04
79453;BME280;68899;52.116;5.404;2024-03-08T12:45:52;101157.84;;;8.22;56.85
79453;BME280;68899;52.116;5.404;2024-03-08T12:48:19;101163.88;;;8.24;56.81
79453;BME280;68899;52.116;5.404;2024-03-08T12:50:47;101158.50;;;8.27;56.85
79453;BME280;68899;52.116;5.404;2024-03-08T12:53:14;101163.59;;;8.30;57.63
79453;BME280;68899;52.116;5.404;2024-03-08T12:55:43;101151.25;;;8.32;57.95
79453;BME280;68899;52.116;5.404;2024-03-08T12:58:10;101159.97;;;8.33;57.53
79453;BME280;68899;52.116;5.404;2024-03-08T13:00:37;101151.19;;;8.34;57.84
79453;BME280;68899;52.116;5.404;2024-03-08T13:03:06;101143.38;;;8.32;57.23
79453;BME280;68899;52.116;5.404;2024-03-08T13:05:33;101143.38;;;8.32;56.90
79453;BME280;68899;52.116;5.404;2024-03-08T13:07:59;101143.38;;;8.32;56.37
79453;BME280;68899;52.116;5.404;2024-03-08T13:10:26;101136.38;;;8.33;56.57
79453;BME280;68899;52.116;5.404;2024-03-08T13:12:53;101139.00;;;8.33;56.36
79453;BME280;68899;52.116;5.404;2024-03-08T13:15:21;101129.34;;;8.35;55.76